createdAt,value
2023-07-19T00:03:39.541Z,1.30
2023-07-19T00:08:41.455Z,1.63
2023-07-19T00:13:43.269Z,2.13
2023-07-19T00:18:45.025Z,2.40
2023-07-19T00:23:46.799Z,1.60
2023-07-19T00:28:49.185Z,1.15
2023-07-19T00:33:51.125Z,1.70
2023-07-19T00:38:53.052Z,1.52
2023-07-19T00:43:54.863Z,1.67
2023-07-19T00:49:00.648Z,1.75
2023-07-19T00:54:04.233Z,2.22
2023-07-19T00:59:06.732Z,2.35
2023-07-19T01:04:08.641Z,2.30
2023-07-19T01:09:14.723Z,1.60
2023-07-19T01:14:16.716Z,1.90
2023-07-19T01:19:19.280Z,1.75
2023-07-19T01:24:21.313Z,1.95
2023-07-19T01:29:23.247Z,1.90
2023-07-19T01:34:25.033Z,2.28
2023-07-19T01:39:27.834Z,2.20
2023-07-19T01:44:29.612Z,1.70
2023-07-19T01:49:32.552Z,1.80
2023-07-19T01:54:34.335Z,1.70
2023-07-19T01:59:36.193Z,1.63
2023-07-19T02:04:38.044Z,2.05
2023-07-19T02:09:41.112Z,1.58
2023-07-19T02:14:42.884Z,1.75
2023-07-19T02:19:44.787Z,1.67
2023-07-19T02:24:46.585Z,2.05
2023-07-19T02:29:48.376Z,2.20
2023-07-19T02:34:50.177Z,2.13
2023-07-19T02:39:53.243Z,2.10
2023-07-19T02:44:55.015Z,2.20
2023-07-19T02:49:57.925Z,2.28
2023-07-19T02:54:59.910Z,2.30
2023-07-19T03:00:01.743Z,2.00
2023-07-19T03:05:05.007Z,1.83
2023-07-19T03:10:07.119Z,1.83
2023-07-19T03:15:09.682Z,2.30
2023-07-19T03:20:12.284Z,2.28
2023-07-19T03:25:14.274Z,2.15
2023-07-19T03:30:16.187Z,2.33
2023-07-19T03:35:19.285Z,2.25
2023-07-19T03:40:24.139Z,1.95
2023-07-19T03:45:28.332Z,1.80
2023-07-19T03:50:30.251Z,1.85
2023-07-19T03:55:32.931Z,1.70
2023-07-19T04:00:35.029Z,1.70
2023-07-19T04:05:36.909Z,1.40
2023-07-19T04:10:38.746Z,1.80
2023-07-19T04:15:40.999Z,1.50
2023-07-19T04:20:42.845Z,1.60
2023-07-19T04:25:44.767Z,1.55
2023-07-19T04:30:49.913Z,1.35
2023-07-19T04:35:52.309Z,2.00
2023-07-19T04:41:02.896Z,1.70
2023-07-19T04:46:06.374Z,1.38
2023-07-19T04:51:08.420Z,3.25
2023-07-19T04:56:24.705Z,2.30
2023-07-19T05:01:26.653Z,2.30
2023-07-19T05:06:28.940Z,2.58
2023-07-19T05:11:31.221Z,2.42
2023-07-19T05:16:34.781Z,2.80
2023-07-19T05:21:36.638Z,2.67
2023-07-19T05:26:41.017Z,2.78
2023-07-19T05:31:42.997Z,2.33
2023-07-19T05:36:44.826Z,2.83
2023-07-19T05:41:48.203Z,2.83
2023-07-19T05:46:51.046Z,2.25
2023-07-19T05:51:52.882Z,2.75
2023-07-19T05:56:54.752Z,3.08
2023-07-19T06:01:56.620Z,2.88
2023-07-19T06:06:58.617Z,2.40
2023-07-19T06:12:01.168Z,4.65
2023-07-19T06:17:03.317Z,3.50
2023-07-19T06:22:05.581Z,2.80
2023-07-19T06:27:07.564Z,2.75
2023-07-19T06:32:09.838Z,3.20
2023-07-19T06:37:11.888Z,3.10
2023-07-19T06:42:13.728Z,3.17
2023-07-19T06:47:16.963Z,3.75
2023-07-19T06:52:18.960Z,3.45
2023-07-19T06:57:22.067Z,3.05
2023-07-19T07:02:24.034Z,3.75
2023-07-19T07:07:25.907Z,3.00
2023-07-19T07:12:27.751Z,3.05
2023-07-19T07:17:29.811Z,2.58
2023-07-19T07:22:31.640Z,2.65
2023-07-19T07:27:33.628Z,2.75
2023-07-19T07:32:35.730Z,2.42
2023-07-19T07:37:37.525Z,2.53
2023-07-19T07:42:39.884Z,2.15
2023-07-19T07:47:41.878Z,2.13
2023-07-19T07:52:46.278Z,2.13
2023-07-19T07:57:51.983Z,2.00
2023-07-19T08:02:53.919Z,1.92
2023-07-19T08:07:55.857Z,2.00
2023-07-19T08:12:57.678Z,2.10
2023-07-19T08:18:02.423Z,2.00
2023-07-19T08:23:07.568Z,2.00
2023-07-19T08:28:12.707Z,2.10
2023-07-19T08:33:14.554Z,1.90
2023-07-19T08:38:16.714Z,2.00
2023-07-19T08:43:18.923Z,2.08
2023-07-19T08:48:21.457Z,1.90
2023-07-19T08:58:26.557Z,2.10
2023-07-19T09:03:28.378Z,1.90
2023-07-19T09:08:41.000Z,1.55
2023-07-19T09:13:42.814Z,1.60
2023-07-19T09:18:46.432Z,1.70
2023-07-19T09:23:48.273Z,1.48
2023-07-19T09:28:52.728Z,1.75
2023-07-19T09:33:57.610Z,1.80
2023-07-19T09:38:59.490Z,1.75
2023-07-19T09:44:08.840Z,1.60
2023-07-19T09:49:11.252Z,1.80
2023-07-19T09:59:19.898Z,1.63
2023-07-19T10:04:29.611Z,1.80
2023-07-19T10:09:35.250Z,1.65
2023-07-19T10:14:37.407Z,1.60
2023-07-19T10:25:06.860Z,1.47
2023-07-19T10:30:09.472Z,1.70
2023-07-19T10:35:31.286Z,1.48
2023-07-19T10:40:33.161Z,1.60
2023-07-19T10:45:36.199Z,1.40
2023-07-19T10:50:39.824Z,1.70
2023-07-19T10:55:53.222Z,1.15
2023-07-19T11:00:56.414Z,1.30
2023-07-19T11:05:59.243Z,1.45
2023-07-19T11:11:01.299Z,1.30
2023-07-19T11:21:06.136Z,1.50
2023-07-19T11:26:13.326Z,1.40
2023-07-19T11:31:36.651Z,1.50
2023-07-19T11:36:48.088Z,1.48
2023-07-19T11:41:50.500Z,1.10
2023-07-19T11:51:54.846Z,1.17
2023-07-19T11:56:57.172Z,1.40
2023-07-19T12:07:02.891Z,1.33
2023-07-19T12:12:05.281Z,1.48
2023-07-19T12:27:17.280Z,1.48
2023-07-19T12:32:19.472Z,1.30
2023-07-19T12:37:21.624Z,1.13
2023-07-19T12:42:23.467Z,1.27
2023-07-19T12:47:25.231Z,1.20
2023-07-19T12:52:37.918Z,1.30
2023-07-19T12:57:43.771Z,1.52
2023-07-19T13:02:45.990Z,1.15
2023-07-19T13:07:48.911Z,1.58
2023-07-19T13:12:50.731Z,1.35
2023-07-19T13:17:55.121Z,1.55
2023-07-19T13:22:59.764Z,1.50
2023-07-19T13:28:01.579Z,1.52
2023-07-19T13:33:03.658Z,1.50
2023-07-19T13:38:07.291Z,1.52
2023-07-19T13:43:11.653Z,1.40
2023-07-19T13:48:13.702Z,1.33
2023-07-19T13:53:15.717Z,1.83
2023-07-19T13:58:17.683Z,1.80
2023-07-19T14:03:19.739Z,1.40
2023-07-19T14:08:22.410Z,1.48
2023-07-19T14:18:28.989Z,1.77
2023-07-19T14:23:30.752Z,1.88
2023-07-19T14:28:32.532Z,1.70
2023-07-19T14:33:34.316Z,1.80
2023-07-19T14:38:36.112Z,2.15
2023-07-19T14:43:38.098Z,1.90
2023-07-19T14:48:39.928Z,1.77
2023-07-19T14:53:44.259Z,2.20
2023-07-19T14:58:48.252Z,2.10
2023-07-19T15:03:50.850Z,2.00
2023-07-19T15:08:52.691Z,1.87
2023-07-19T15:13:54.764Z,2.00
2023-07-19T15:18:57.456Z,1.90
2023-07-19T15:23:59.417Z,1.60
2023-07-19T15:29:01.808Z,1.48
2023-07-19T15:34:15.944Z,1.63
2023-07-19T15:39:19.561Z,1.65
2023-07-19T15:49:38.159Z,2.53
2023-07-19T15:54:40.006Z,1.98
2023-07-19T15:59:41.783Z,1.67
2023-07-19T16:04:43.644Z,2.00
2023-07-19T16:09:45.446Z,1.80
2023-07-19T16:14:47.206Z,1.90
2023-07-19T16:19:49.019Z,1.85
2023-07-19T16:24:51.290Z,2.13
2023-07-19T16:29:53.564Z,2.30
2023-07-19T16:34:55.380Z,2.33
2023-07-19T16:39:57.182Z,2.40
2023-07-19T16:44:58.976Z,2.40
2023-07-19T16:50:00.986Z,2.08
2023-07-19T16:55:02.902Z,2.33
2023-07-19T17:00:16.586Z,2.25
2023-07-19T17:05:19.614Z,1.42
2023-07-19T17:10:21.436Z,2.03
2023-07-19T17:15:23.339Z,1.92
2023-07-19T17:20:25.451Z,1.55
2023-07-19T17:25:27.261Z,1.60
2023-07-19T17:30:29.296Z,1.98
2023-07-19T17:35:31.492Z,2.13
2023-07-19T17:40:33.302Z,2.60
2023-07-19T17:45:35.474Z,2.22
2023-07-19T17:50:37.313Z,1.55
2023-07-19T17:55:39.357Z,1.92
2023-07-19T18:00:41.822Z,2.20
2023-07-19T18:05:43.620Z,2.35
2023-07-19T18:10:45.653Z,2.10
2023-07-19T18:15:47.936Z,1.45
2023-07-19T18:20:54.228Z,1.60
2023-07-19T18:25:56.399Z,2.15
2023-07-19T18:30:58.311Z,1.48
2023-07-19T18:36:00.203Z,1.63
2023-07-19T18:41:02.025Z,2.35
2023-07-19T18:46:04.134Z,2.13
2023-07-19T18:51:06.349Z,2.55
2023-07-19T18:56:08.194Z,1.77
2023-07-19T19:01:10.350Z,1.80
2023-07-19T19:06:12.298Z,1.40
2023-07-19T19:11:15.750Z,2.17
2023-07-19T19:16:18.327Z,2.42
2023-07-19T19:21:20.439Z,2.05
2023-07-19T19:26:22.493Z,2.28
2023-07-19T19:31:24.470Z,1.75
2023-07-19T19:36:26.703Z,1.58
2023-07-19T19:41:28.685Z,1.95
2023-07-19T19:46:30.523Z,2.80
2023-07-19T19:51:33.433Z,2.13
2023-07-19T19:56:36.164Z,2.25
2023-07-19T20:01:38.451Z,1.60
2023-07-19T20:06:40.426Z,1.80
2023-07-19T20:11:47.062Z,1.52
2023-07-19T20:26:57.606Z,2.28
2023-07-19T20:32:00.450Z,1.50
2023-07-19T20:42:09.884Z,2.92
2023-07-19T20:47:12.152Z,2.83
2023-07-19T20:52:14.088Z,3.10
2023-07-19T20:57:15.928Z,3.90
2023-07-19T21:02:17.705Z,1.80
2023-07-19T21:07:19.654Z,2.30
2023-07-19T21:12:21.582Z,3.40
2023-07-19T21:17:23.518Z,2.40
2023-07-19T21:22:25.350Z,2.70
2023-07-19T21:27:27.224Z,2.65
2023-07-19T21:32:29.658Z,2.75
2023-07-19T21:37:31.588Z,2.15
2023-07-19T21:42:34.440Z,2.47
2023-07-19T21:47:36.261Z,2.70
2023-07-19T21:52:38.213Z,3.05
2023-07-19T21:57:40.015Z,3.33
2023-07-19T22:02:41.832Z,2.50
2023-07-19T22:07:43.669Z,3.75
2023-07-19T22:12:45.464Z,3.75
2023-07-19T22:17:50.897Z,3.72
2023-07-19T22:22:52.742Z,3.60
2023-07-19T22:27:54.535Z,3.85
2023-07-19T22:32:56.400Z,4.53
2023-07-19T22:37:58.402Z,3.42
2023-07-19T22:43:00.417Z,4.15
2023-07-19T22:48:02.613Z,2.92
2023-07-19T22:53:04.759Z,3.50
2023-07-19T22:58:06.611Z,4.43
2023-07-19T23:03:08.720Z,4.75
2023-07-19T23:08:10.535Z,5.07
2023-07-19T23:13:12.393Z,5.20
2023-07-19T23:18:14.204Z,5.30
2023-07-19T23:23:16.258Z,5.68
2023-07-19T23:28:19.101Z,5.80
2023-07-19T23:33:20.962Z,5.75
2023-07-19T23:38:22.863Z,4.80
2023-07-19T23:43:24.766Z,5.22
2023-07-19T23:48:26.620Z,5.30
2023-07-19T23:53:28.395Z,3.53
2023-07-19T23:58:30.173Z,2.15
